sensor_id;sensor_type;location;lat;lon;timestamp;pressure;altitude;pressure_sealevel;temperature;humidity
33422;BME280;19763;55.798;37.782;2023-04-29T00:01:11;148983.44;;;6.68;86.29
33422;BME280;19763;55.798;37.782;2023-04-29T00:03:36;149020.47;;;6.83;85.88
33422;BME280;19763;55.798;37.782;2023-04-29T00:06:02;149001.31;;;6.76;85.62
33422;BME280;19763;55.798;37.782;2023-04-29T00:08:28;148971.88;;;6.64;85.57
33422;BME280;19763;55.798;37.782;2023-04-29T00:10:53;148987.25;;;6.70;85.31
33422;BME280;19763;55.798;37.782;2023-04-29T00:13:19;148988.53;;;6.70;84.91
33422;BME280;19763;55.798;37.782;2023-04-29T00:15:45;148985.94;;;6.69;84.89
33422;BME280;19763;55.798;37.782;2023-04-29T00:18:11;148978.28;;;6.66;85.39
33422;BME280;19763;55.798;37.782;2023-04-29T00:20:38;148969.38;;;6.63;85.60
33422;BME280;19763;55.798;37.782;2023-04-29T00:23:04;148984.69;;;6.69;85.68
33422;BME280;19763;55.798;37.782;2023-04-29T00:25:30;148983.44;;;6.68;85.62
33422;BME280;19763;55.798;37.782;2023-04-29T00:27:56;149006.41;;;6.78;85.63
33422;BME280;19763;55.798;37.782;2023-04-29T00:30:29;148971.88;;;6.64;85.24
33422;BME280;19763;55.798;37.782;2023-04-29T00:32:55;148968.06;;;6.62;85.53
33422;BME280;19763;55.798;37.782;2023-04-29T00:35:21;148969.38;;;6.63;85.64
33422;BME280;19763;55.798;37.782;2023-04-29T00:37:47;148974.44;;;6.65;85.08
33422;BME280;19763;55.798;37.782;2023-04-29T00:40:13;148991.09;;;6.71;85.63
33422;BME280;19763;55.798;37.782;2023-04-29T00:42:40;149002.59;;;6.76;86.37
33422;BME280;19763;55.798;37.782;2023-04-29T00:45:06;148987.25;;;6.70;86.50
33422;BME280;19763;55.798;37.782;2023-04-29T00:47:32;148997.44;;;6.74;85.54
33422;BME280;19763;55.798;37.782;2023-04-29T00:49:58;148997.44;;;6.74;85.19
33422;BME280;19763;55.798;37.782;2023-04-29T00:52:25;148987.25;;;6.70;85.34
33422;BME280;19763;55.798;37.782;2023-04-29T00:54:51;148993.63;;;6.72;84.79
33422;BME280;19763;55.798;37.782;2023-04-29T00:57:18;148942.50;;;6.52;85.67
33422;BME280;19763;55.798;37.782;2023-04-29T00:59:44;148865.78;;;6.21;84.53
33422;BME280;19763;55.798;37.782;2023-04-29T01:02:10;148907.97;;;6.38;85.69
33422;BME280;19763;55.798;37.782;2023-04-29T01:04:36;148891.34;;;6.31;85.86
33422;BME280;19763;55.798;37.782;2023-04-29T01:07:13;148853.03;;;6.16;85.27
33422;BME280;19763;55.798;37.782;2023-04-29T01:15:20;148892.66;;;6.32;85.55
33422;BME280;19763;55.798;37.782;2023-04-29T01:17:54;148919.47;;;6.43;85.74
33422;BME280;19763;55.798;37.782;2023-04-29T01:20:21;148905.41;;;6.37;86.25
33422;BME280;19763;55.798;37.782;2023-04-29T01:22:47;148919.47;;;6.43;86.44
33422;BME280;19763;55.798;37.782;2023-04-29T01:25:13;148927.16;;;6.46;86.46
33422;BME280;19763;55.798;37.782;2023-04-29T01:27:54;148952.72;;;6.56;86.63
33422;BME280;19763;55.798;37.782;2023-04-29T01:30:45;148957.81;;;6.58;86.48
33422;BME280;19763;55.798;37.782;2023-04-29T01:41:36;148960.38;;;6.59;85.81
33422;BME280;19763;55.798;37.782;2023-04-29T01:44:07;148939.94;;;6.51;85.87
33422;BME280;19763;55.798;37.782;2023-04-29T01:46:33;148975.72;;;6.65;85.67
33422;BME280;19763;55.798;37.782;2023-04-29T01:48:59;148973.19;;;6.64;85.92
33422;BME280;19763;55.798;37.782;2023-04-29T01:51:25;148988.53;;;6.70;86.18
33422;BME280;19763;55.798;37.782;2023-04-29T01:53:52;148982.13;;;6.68;86.13
33422;BME280;19763;55.798;37.782;2023-04-29T01:56:18;148954.00;;;6.56;86.95
33422;BME280;19763;55.798;37.782;2023-04-29T01:58:43;148962.97;;;6.60;85.94
33422;BME280;19763;55.798;37.782;2023-04-29T02:01:09;148946.31;;;6.53;85.42
33422;BME280;19763;55.798;37.782;2023-04-29T02:03:36;148916.94;;;6.42;85.23
33422;BME280;19763;55.798;37.782;2023-04-29T02:06:01;148937.34;;;6.50;85.47
33422;BME280;19763;55.798;37.782;2023-04-29T02:08:27;148925.88;;;6.45;84.80
33422;BME280;19763;55.798;37.782;2023-04-29T02:10:57;148902.88;;;6.36;85.02
33422;BME280;19763;55.798;37.782;2023-04-29T02:13:23;148911.81;;;6.39;85.38
33422;BME280;19763;55.798;37.782;2023-04-29T02:15:49;148932.25;;;6.48;85.04
33422;BME280;19763;55.798;37.782;2023-04-29T02:18:15;148932.25;;;6.48;85.50
33422;BME280;19763;55.798;37.782;2023-04-29T02:20:41;148951.41;;;6.55;85.10
33422;BME280;19763;55.798;37.782;2023-04-29T02:23:07;148887.50;;;6.30;84.69
33422;BME280;19763;55.798;37.782;2023-04-29T02:25:33;148870.94;;;6.23;85.16
33422;BME280;19763;55.798;37.782;2023-04-29T02:27:58;148887.50;;;6.30;85.57
33422;BME280;19763;55.798;37.782;2023-04-29T02:30:24;148861.97;;;6.19;85.58
33422;BME280;19763;55.798;37.782;2023-04-29T02:32:50;148823.63;;;6.04;86.10
33422;BME280;19763;55.798;37.782;2023-04-29T02:35:16;148864.53;;;6.20;85.67
33422;BME280;19763;55.798;37.782;2023-04-29T02:37:41;148868.34;;;6.22;85.60
33422;BME280;19763;55.798;37.782;2023-04-29T02:40:07;148850.47;;;6.15;86.17
33422;BME280;19763;55.798;37.782;2023-04-29T02:42:33;148878.59;;;6.26;86.47
33422;BME280;19763;55.798;37.782;2023-04-29T02:44:58;148899.03;;;6.34;86.19
33422;BME280;19763;55.798;37.782;2023-04-29T02:47:25;148896.47;;;6.33;85.29
33422;BME280;19763;55.798;37.782;2023-04-29T02:49:50;148864.53;;;6.20;85.76
33422;BME280;19763;55.798;37.782;2023-04-29T02:52:16;148865.78;;;6.21;85.40
33422;BME280;19763;55.798;37.782;2023-04-29T02:54:42;148868.34;;;6.22;85.51
33422;BME280;19763;55.798;37.782;2023-04-29T02:57:08;148823.63;;;6.04;84.91
33422;BME280;19763;55.798;37.782;2023-04-29T02:59:33;148847.91;;;6.14;84.15
33422;BME280;19763;55.798;37.782;2023-04-29T03:01:59;148826.19;;;6.05;85.42
33422;BME280;19763;55.798;37.782;2023-04-29T03:04:26;148836.41;;;6.09;85.63
33422;BME280;19763;55.798;37.782;2023-04-29T03:06:54;148840.25;;;6.11;85.60
33422;BME280;19763;55.798;37.782;2023-04-29T03:09:21;148823.63;;;6.04;85.09
33422;BME280;19763;55.798;37.782;2023-04-29T03:11:48;148807.03;;;5.97;85.25
33422;BME280;19763;55.798;37.782;2023-04-29T03:14:14;148795.44;;;5.93;84.66
33422;BME280;19763;55.798;37.782;2023-04-29T03:16:39;148832.59;;;6.08;85.50
33422;BME280;19763;55.798;37.782;2023-04-29T03:19:05;148824.94;;;6.04;85.34
33422;BME280;19763;55.798;37.782;2023-04-29T03:21:31;148831.31;;;6.07;85.53
33422;BME280;19763;55.798;37.782;2023-04-29T03:23:57;148835.16;;;6.09;85.30
33422;BME280;19763;55.798;37.782;2023-04-29T03:26:22;148807.03;;;5.97;83.77
33422;BME280;19763;55.798;37.782;2023-04-29T03:28:49;148818.53;;;6.02;84.14
33422;BME280;19763;55.798;37.782;2023-04-29T03:31:15;148813.38;;;6.00;84.35
33422;BME280;19763;55.798;37.782;2023-04-29T03:33:41;148796.75;;;5.93;84.67
33422;BME280;19763;55.798;37.782;2023-04-29T03:36:07;148786.53;;;5.89;83.50
33422;BME280;19763;55.798;37.782;2023-04-29T03:38:33;148767.34;;;5.81;83.99
33422;BME280;19763;55.798;37.782;2023-04-29T03:40:59;148748.19;;;5.74;84.72
33422;BME280;19763;55.798;37.782;2023-04-29T03:43:25;148737.97;;;5.69;84.04
33422;BME280;19763;55.798;37.782;2023-04-29T03:45:50;148717.53;;;5.61;83.79
33422;BME280;19763;55.798;37.782;2023-04-29T03:48:17;148703.47;;;5.56;83.54
33422;BME280;19763;55.798;37.782;2023-04-29T03:50:44;148709.88;;;5.58;83.96
33422;BME280;19763;55.798;37.782;2023-04-29T03:53:10;148680.50;;;5.46;83.48
33422;BME280;19763;55.798;37.782;2023-04-29T03:55:36;148709.88;;;5.58;84.63
33422;BME280;19763;55.798;37.782;2023-04-29T03:58:01;148712.44;;;5.59;84.60
33422;BME280;19763;55.798;37.782;2023-04-29T04:00:29;148688.16;;;5.49;84.61
33422;BME280;19763;55.798;37.782;2023-04-29T04:02:56;148685.59;;;5.48;83.62
33422;BME280;19763;55.798;37.782;2023-04-29T04:05:22;148612.81;;;5.19;84.44
33422;BME280;19763;55.798;37.782;2023-04-29T04:07:50;148644.75;;;5.32;84.94
33422;BME280;19763;55.798;37.782;2023-04-29T04:10:16;148628.13;;;5.25;84.22
33422;BME280;19763;55.798;37.782;2023-04-29T04:12:42;148649.84;;;5.34;84.33
33422;BME280;19763;55.798;37.782;2023-04-29T04:15:08;148661.31;;;5.39;84.22
33422;BME280;19763;55.798;37.782;2023-04-29T04:17:34;148661.31;;;5.39;84.33
33422;BME280;19763;55.798;37.782;2023-04-29T04:20:00;148670.28;;;5.42;83.64
33422;BME280;19763;55.798;37.782;2023-04-29T04:22:25;148619.22;;;5.22;84.70
33422;BME280;19763;55.798;37.782;2023-04-29T04:24:53;148583.44;;;5.07;84.84
33422;BME280;19763;55.798;37.782;2023-04-29T04:27:19;148629.38;;;5.26;84.25
33422;BME280;19763;55.798;37.782;2023-04-29T04:29:45;148666.47;;;5.41;84.49
33422;BME280;19763;55.798;37.782;2023-04-29T04:32:10;148671.53;;;5.43;84.03
33422;BME280;19763;55.798;37.782;2023-04-29T04:34:36;148685.59;;;5.48;84.68
33422;BME280;19763;55.798;37.782;2023-04-29T04:37:04;148702.22;;;5.55;84.24
33422;BME280;19763;55.798;37.782;2023-04-29T04:39:30;148698.38;;;5.53;84.15
33422;BME280;19763;55.798;37.782;2023-04-29T04:41:56;148681.75;;;5.47;85.18
33422;BME280;19763;55.798;37.782;2023-04-29T04:44:22;148677.94;;;5.45;85.64
33422;BME280;19763;55.798;37.782;2023-04-29T04:46:49;148651.16;;;5.34;85.29
33422;BME280;19763;55.798;37.782;2023-04-29T04:49:14;148689.41;;;5.50;84.59
33422;BME280;19763;55.798;37.782;2023-04-29T04:51:43;148675.38;;;5.44;84.15
33422;BME280;19763;55.798;37.782;2023-04-29T04:54:09;148699.66;;;5.54;85.38
33422;BME280;19763;55.798;37.782;2023-04-29T04:56:35;148691.97;;;5.51;85.00
33422;BME280;19763;55.798;37.782;2023-04-29T04:59:02;148674.09;;;5.44;85.14
33422;BME280;19763;55.798;37.782;2023-04-29T05:01:28;148688.16;;;5.49;85.48
33422;BME280;19763;55.798;37.782;2023-04-29T05:03:53;148663.88;;;5.40;85.39
33422;BME280;19763;55.798;37.782;2023-04-29T05:06:19;148690.72;;;5.50;85.17
33422;BME280;19763;55.798;37.782;2023-04-29T05:08:45;148684.34;;;5.48;85.08
33422;BME280;19763;55.798;37.782;2023-04-29T05:11:15;148661.31;;;5.39;84.52
33422;BME280;19763;55.798;37.782;2023-04-29T05:13:41;148638.34;;;5.29;85.42
33422;BME280;19763;55.798;37.782;2023-04-29T05:16:07;148654.97;;;5.36;86.17
33422;BME280;19763;55.798;37.782;2023-04-29T05:18:32;148676.69;;;5.45;87.24
33422;BME280;19763;55.798;37.782;2023-04-29T05:20:59;148735.41;;;5.68;86.20
33422;BME280;19763;55.798;37.782;2023-04-29T05:23:25;148722.66;;;5.63;87.05
33422;BME280;19763;55.798;37.782;2023-04-29T05:25:51;148716.25;;;5.61;86.27
33422;BME280;19763;55.798;37.782;2023-04-29T05:28:16;148762.25;;;5.79;85.95
33422;BME280;19763;55.798;37.782;2023-04-29T05:30:42;148776.31;;;5.85;85.96
33422;BME280;19763;55.798;37.782;2023-04-29T05:33:08;148794.19;;;5.92;85.88
33422;BME280;19763;55.798;37.782;2023-04-29T05:35:33;148764.81;;;5.80;86.80
33422;BME280;19763;55.798;37.782;2023-04-29T05:37:59;148771.22;;;5.83;85.98
33422;BME280;19763;55.798;37.782;2023-04-29T05:40:24;148773.75;;;5.84;84.56
33422;BME280;19763;55.798;37.782;2023-04-29T05:42:50;148783.97;;;5.88;83.68
33422;BME280;19763;55.798;37.782;2023-04-29T05:45:16;148783.97;;;5.88;84.75
33422;BME280;19763;55.798;37.782;2023-04-29T05:47:42;148755.84;;;5.77;83.92
33422;BME280;19763;55.798;37.782;2023-04-29T05:50:07;148781.41;;;5.87;84.33
33422;BME280;19763;55.798;37.782;2023-04-29T05:52:33;148794.19;;;5.92;84.66
33422;BME280;19763;55.798;37.782;2023-04-29T05:54:58;148831.31;;;6.07;84.52
33422;BME280;19763;55.798;37.782;2023-04-29T05:57:24;148853.03;;;6.16;84.73
33422;BME280;19763;55.798;37.782;2023-04-29T05:59:50;148868.34;;;6.22;84.57
33422;BME280;19763;55.798;37.782;2023-04-29T06:02:15;148845.34;;;6.13;84.60
33422;BME280;19763;55.798;37.782;2023-04-29T06:04:41;148865.78;;;6.21;84.32
33422;BME280;19763;55.798;37.782;2023-04-29T06:07:07;148876.03;;;6.25;84.38
33422;BME280;19763;55.798;37.782;2023-04-29T06:09:35;148807.03;;;5.97;83.66
33422;BME280;19763;55.798;37.782;2023-04-29T06:12:00;148861.97;;;6.19;83.98
33422;BME280;19763;55.798;37.782;2023-04-29T06:14:27;148869.63;;;6.22;83.75
33422;BME280;19763;55.798;37.782;2023-04-29T06:16:52;148864.53;;;6.20;83.19
33422;BME280;19763;55.798;37.782;2023-04-29T06:19:18;148864.53;;;6.20;82.10
33422;BME280;19763;55.798;37.782;2023-04-29T06:21:44;148885.00;;;6.29;82.11
33422;BME280;19763;55.798;37.782;2023-04-29T06:24:09;148893.91;;;6.32;81.40
33422;BME280;19763;55.798;37.782;2023-04-29T06:26:35;148910.53;;;6.39;82.17
33422;BME280;19763;55.798;37.782;2023-04-29T06:29:01;148929.69;;;6.47;83.04
33422;BME280;19763;55.798;37.782;2023-04-29T06:31:26;148922.03;;;6.44;82.13
33422;BME280;19763;55.798;37.782;2023-04-29T06:33:52;148936.09;;;6.49;81.19
33422;BME280;19763;55.798;37.782;2023-04-29T06:36:18;148929.69;;;6.47;81.88
33422;BME280;19763;55.798;37.782;2023-04-29T06:38:43;148959.13;;;6.59;81.51
33422;BME280;19763;55.798;37.782;2023-04-29T06:41:09;148974.44;;;6.65;82.82
33422;BME280;19763;55.798;37.782;2023-04-29T06:43:34;148991.09;;;6.71;83.55
33422;BME280;19763;55.798;37.782;2023-04-29T06:46:00;149014.09;;;6.81;81.51
33422;BME280;19763;55.798;37.782;2023-04-29T06:48:26;149040.94;;;6.91;81.67
33422;BME280;19763;55.798;37.782;2023-04-29T06:50:53;149056.28;;;6.98;80.51
33422;BME280;19763;55.798;37.782;2023-04-29T06:53:20;149081.84;;;7.08;80.15
33422;BME280;19763;55.798;37.782;2023-04-29T06:55:46;149087.00;;;7.10;79.62
33422;BME280;19763;55.798;37.782;2023-04-29T06:58:12;149093.41;;;7.13;79.70
33422;BME280;19763;55.798;37.782;2023-04-29T07:00:39;149090.81;;;7.12;81.38
33422;BME280;19763;55.798;37.782;2023-04-29T07:03:04;149115.13;;;7.21;79.73
33422;BME280;19763;55.798;37.782;2023-04-29T07:05:30;149139.44;;;7.31;78.52
33422;BME280;19763;55.798;37.782;2023-04-29T07:07:55;149138.13;;;7.31;78.95
33422;BME280;19763;55.798;37.782;2023-04-29T07:10:21;149138.13;;;7.31;78.59
33422;BME280;19763;55.798;37.782;2023-04-29T07:12:47;149186.75;;;7.50;79.43
33422;BME280;19763;55.798;37.782;2023-04-29T07:15:13;149195.69;;;7.54;79.25
33422;BME280;19763;55.798;37.782;2023-04-29T07:17:38;149199.56;;;7.55;77.29
33422;BME280;19763;55.798;37.782;2023-04-29T07:20:04;149188.00;;;7.51;77.07
33422;BME280;19763;55.798;37.782;2023-04-29T07:22:31;149236.66;;;7.70;78.35
33422;BME280;19763;55.798;37.782;2023-04-29T07:24:56;149262.22;;;7.81;75.96
33422;BME280;19763;55.798;37.782;2023-04-29T07:27:22;149232.81;;;7.69;76.55
33422;BME280;19763;55.798;37.782;2023-04-29T07:29:48;149280.16;;;7.88;76.13
33422;BME280;19763;55.798;37.782;2023-04-29T07:32:15;149291.69;;;7.92;76.81
33422;BME280;19763;55.798;37.782;2023-04-29T07:34:40;149341.59;;;8.12;76.21
33422;BME280;19763;55.798;37.782;2023-04-29T07:37:06;149372.28;;;8.25;76.35
33422;BME280;19763;55.798;37.782;2023-04-29T07:39:31;149399.19;;;8.36;75.81
33422;BME280;19763;55.798;37.782;2023-04-29T07:41:57;149396.63;;;8.35;75.33
33422;BME280;19763;55.798;37.782;2023-04-29T07:44:24;149409.44;;;8.40;75.13
33422;BME280;19763;55.798;37.782;2023-04-29T07:46:49;149441.50;;;8.53;73.93
33422;BME280;19763;55.798;37.782;2023-04-29T07:49:15;149417.13;;;8.43;73.69
33422;BME280;19763;55.798;37.782;2023-04-29T07:51:41;149410.72;;;8.40;72.32
33422;BME280;19763;55.798;37.782;2023-04-29T07:54:08;149349.28;;;8.16;73.27
33422;BME280;19763;55.798;37.782;2023-04-29T07:56:33;149391.53;;;8.33;72.78
33422;BME280;19763;55.798;37.782;2023-04-29T07:58:59;149372.28;;;8.25;73.54
33422;BME280;19763;55.798;37.782;2023-04-29T08:01:26;149382.53;;;8.29;74.67
33422;BME280;19763;55.798;37.782;2023-04-29T08:03:52;149437.66;;;8.51;74.19
33422;BME280;19763;55.798;37.782;2023-04-29T08:06:18;149445.34;;;8.54;76.10
33422;BME280;19763;55.798;37.782;2023-04-29T08:08:47;149500.38;;;8.76;73.66
33422;BME280;19763;55.798;37.782;2023-04-29T08:11:19;149561.88;;;9.01;73.76
33422;BME280;19763;55.798;37.782;2023-04-29T08:13:46;149602.84;;;9.18;73.38
33422;BME280;19763;55.798;37.782;2023-04-29T08:16:12;149615.69;;;9.23;70.34
33422;BME280;19763;55.798;37.782;2023-04-29T08:18:38;149679.75;;;9.48;70.92
33422;BME280;19763;55.798;37.782;2023-04-29T08:21:04;149615.69;;;9.23;69.41
33422;BME280;19763;55.798;37.782;2023-04-29T08:23:30;149668.22;;;9.44;71.13
33422;BME280;19763;55.798;37.782;2023-04-29T08:25:57;149701.50;;;9.57;68.38
33422;BME280;19763;55.798;37.782;2023-04-29T08:28:23;149681.00;;;9.49;70.89
33422;BME280;19763;55.798;37.782;2023-04-29T08:30:49;149654.13;;;9.38;71.82
33422;BME280;19763;55.798;37.782;2023-04-29T08:33:14;149641.28;;;9.33;71.62
33422;BME280;19763;55.798;37.782;2023-04-29T08:35:41;149633.63;;;9.30;69.15
33422;BME280;19763;55.798;37.782;2023-04-29T08:38:08;149583.66;;;9.10;70.81
33422;BME280;19763;55.798;37.782;2023-04-29T08:40:35;149638.75;;;9.32;68.80
33422;BME280;19763;55.798;37.782;2023-04-29T08:43:02;149722.03;;;9.65;71.84
33422;BME280;19763;55.798;37.782;2023-04-29T08:45:28;149720.75;;;9.65;68.11
33422;BME280;19763;55.798;37.782;2023-04-29T08:47:54;149813.03;;;10.02;66.12
33422;BME280;19763;55.798;37.782;2023-04-29T08:50:22;149806.63;;;9.99;68.07
33422;BME280;19763;55.798;37.782;2023-04-29T08:52:49;149847.63;;;10.16;64.00
33422;BME280;19763;55.798;37.782;2023-04-29T08:55:16;149836.09;;;10.11;65.55
33422;BME280;19763;55.798;37.782;2023-04-29T08:57:43;149820.72;;;10.05;65.50
33422;BME280;19763;55.798;37.782;2023-04-29T09:00:10;149829.69;;;10.09;66.14
33422;BME280;19763;55.798;37.782;2023-04-29T09:02:44;149905.41;;;10.39;65.70
33422;BME280;19763;55.798;37.782;2023-04-29T09:05:11;149873.31;;;10.26;63.41
33422;BME280;19763;55.798;37.782;2023-04-29T09:07:38;149892.56;;;10.34;64.10
33422;BME280;19763;55.798;37.782;2023-04-29T09:10:04;149877.16;;;10.28;65.04
33422;BME280;19763;55.798;37.782;2023-04-29T09:12:30;149874.56;;;10.27;64.76
33422;BME280;19763;55.798;37.782;2023-04-29T09:14:56;149895.13;;;10.35;64.95
33422;BME280;19763;55.798;37.782;2023-04-29T09:17:46;149884.81;;;10.31;63.87
33422;BME280;19763;55.798;37.782;2023-04-29T09:22:51;149990.06;;;10.73;63.62
33422;BME280;19763;55.798;37.782;2023-04-29T09:25:17;150059.28;;;11.01;62.54
33422;BME280;19763;55.798;37.782;2023-04-29T09:27:43;150088.78;;;11.13;61.18
33422;BME280;19763;55.798;37.782;2023-04-29T09:30:09;150060.56;;;11.01;59.72
33422;BME280;19763;55.798;37.782;2023-04-29T09:32:36;150054.19;;;10.99;59.73
33422;BME280;19763;55.798;37.782;2023-04-29T09:35:31;150072.13;;;11.06;59.63
33422;BME280;19763;55.798;37.782;2023-04-29T09:38:13;149997.75;;;10.76;58.69
33422;BME280;19763;55.798;37.782;2023-04-29T09:40:40;150052.88;;;10.98;56.61
33422;BME280;19763;55.798;37.782;2023-04-29T09:43:14;150128.59;;;11.29;59.63
33422;BME280;19763;55.798;37.782;2023-04-29T09:45:42;150093.94;;;11.15;56.19
33422;BME280;19763;55.798;37.782;2023-04-29T09:48:09;150100.38;;;11.17;56.73
33422;BME280;19763;55.798;37.782;2023-04-29T09:50:36;150101.63;;;11.18;54.18
33422;BME280;19763;55.798;37.782;2023-04-29T09:53:03;150117.00;;;11.24;53.34
33422;BME280;19763;55.798;37.782;2023-04-29T09:55:30;150113.16;;;11.22;51.59
33422;BME280;19763;55.798;37.782;2023-04-29T09:57:56;150155.53;;;11.39;53.18
33422;BME280;19763;55.798;37.782;2023-04-29T10:00:23;150173.47;;;11.47;55.67
33422;BME280;19763;55.798;37.782;2023-04-29T10:02:50;150242.81;;;11.74;55.48
33422;BME280;19763;55.798;37.782;2023-04-29T10:05:18;150260.78;;;11.82;54.70
33422;BME280;19763;55.798;37.782;2023-04-29T10:07:45;150271.06;;;11.86;53.44
33422;BME280;19763;55.798;37.782;2023-04-29T10:10:12;150229.97;;;11.69;52.90
33422;BME280;19763;55.798;37.782;2023-04-29T10:12:39;150163.22;;;11.43;52.89
33422;BME280;19763;55.798;37.782;2023-04-29T10:15:28;150167.06;;;11.44;56.56
33422;BME280;19763;55.798;37.782;2023-04-29T10:18:00;150158.09;;;11.40;53.30
33422;BME280;19763;55.798;37.782;2023-04-29T10:20:27;150152.94;;;11.38;51.40
33422;BME280;19763;55.798;37.782;2023-04-29T10:22:54;150182.50;;;11.50;50.21
33422;BME280;19763;55.798;37.782;2023-04-29T10:25:22;150255.63;;;11.80;52.08
33422;BME280;19763;55.798;37.782;2023-04-29T10:27:48;150236.38;;;11.72;51.33
33422;BME280;19763;55.798;37.782;2023-04-29T10:30:17;150241.50;;;11.74;48.89
33422;BME280;19763;55.798;37.782;2023-04-29T10:32:44;150262.03;;;11.82;51.09
33422;BME280;19763;55.798;37.782;2023-04-29T10:35:11;150283.88;;;11.91;50.56
33422;BME280;19763;55.798;37.782;2023-04-29T10:37:39;150221.00;;;11.66;48.96
33422;BME280;19763;55.798;37.782;2023-04-29T10:42:47;150223.53;;;11.67;50.94
33422;BME280;19763;55.798;37.782;2023-04-29T10:53:02;150210.72;;;11.62;48.91
33422;BME280;19763;55.798;37.782;2023-04-29T10:55:29;150210.72;;;11.62;50.77
33422;BME280;19763;55.798;37.782;2023-04-29T10:57:55;150235.13;;;11.71;50.51
33422;BME280;19763;55.798;37.782;2023-04-29T11:00:29;150238.97;;;11.73;49.96
33422;BME280;19763;55.798;37.782;2023-04-29T11:02:56;150256.94;;;11.80;51.53
33422;BME280;19763;55.798;37.782;2023-04-29T11:05:33;150231.22;;;11.70;51.78
33422;BME280;19763;55.798;37.782;2023-04-29T11:08:09;150247.94;;;11.77;50.08
33422;BME280;19763;55.798;37.782;2023-04-29T11:10:40;150256.94;;;11.80;52.67
33422;BME280;19763;55.798;37.782;2023-04-29T11:13:26;150231.22;;;11.70;51.77
33422;BME280;19763;55.798;37.782;2023-04-29T11:16:05;150242.81;;;11.74;50.62
33422;BME280;19763;55.798;37.782;2023-04-29T11:18:33;150236.38;;;11.72;51.20
33422;BME280;19763;55.798;37.782;2023-04-29T11:23:34;150224.84;;;11.67;50.96
33422;BME280;19763;55.798;37.782;2023-04-29T11:26:01;150227.38;;;11.68;51.14
33422;BME280;19763;55.798;37.782;2023-04-29T11:28:27;150254.34;;;11.79;52.04
33422;BME280;19763;55.798;37.782;2023-04-29T11:30:53;150271.06;;;11.86;51.41
33422;BME280;19763;55.798;37.782;2023-04-29T11:33:25;150241.50;;;11.74;50.95
33422;BME280;19763;55.798;37.782;2023-04-29T11:35:52;150247.94;;;11.77;50.45
33422;BME280;19763;55.798;37.782;2023-04-29T11:38:24;150218.41;;;11.65;50.78
33422;BME280;19763;55.798;37.782;2023-04-29T11:40:50;150249.19;;;11.77;50.99
33422;BME280;19763;55.798;37.782;2023-04-29T11:43:17;150222.25;;;11.66;50.75
33422;BME280;19763;55.798;37.782;2023-04-29T11:45:46;150253.09;;;11.79;49.91
33422;BME280;19763;55.798;37.782;2023-04-29T11:48:25;150272.31;;;11.86;50.27
33422;BME280;19763;55.798;37.782;2023-04-29T11:50:52;150242.81;;;11.74;49.50
33422;BME280;19763;55.798;37.782;2023-04-29T11:53:20;150308.31;;;12.01;51.79
33422;BME280;19763;55.798;37.782;2023-04-29T11:55:46;150323.69;;;12.07;49.68
33422;BME280;19763;55.798;37.782;2023-04-29T11:58:15;150314.75;;;12.03;49.43
33422;BME280;19763;55.798;37.782;2023-04-29T12:00:41;150314.75;;;12.03;47.39
33422;BME280;19763;55.798;37.782;2023-04-29T12:03:15;150299.34;;;11.97;48.30
33422;BME280;19763;55.798;37.782;2023-04-29T12:05:55;150335.28;;;12.12;45.34
33422;BME280;19763;55.798;37.782;2023-04-29T12:08:23;150372.50;;;12.26;46.10
33422;BME280;19763;55.798;37.782;2023-04-29T12:10:49;150345.56;;;12.16;47.87
33422;BME280;19763;55.798;37.782;2023-04-29T12:13:16;150321.16;;;12.06;47.69
33422;BME280;19763;55.798;37.782;2023-04-29T12:15:44;150336.56;;;12.12;47.24
33422;BME280;19763;55.798;37.782;2023-04-29T12:18:11;150304.47;;;11.99;46.70
33422;BME280;19763;55.798;37.782;2023-04-29T12:20:37;150382.78;;;12.31;47.69
33422;BME280;19763;55.798;37.782;2023-04-29T12:23:13;150354.53;;;12.19;47.67
33422;BME280;19763;55.798;37.782;2023-04-29T12:26:16;150360.97;;;12.22;47.76
33422;BME280;19763;55.798;37.782;2023-04-29T12:28:43;150355.81;;;12.20;44.49
33422;BME280;19763;55.798;37.782;2023-04-29T12:31:09;150385.38;;;12.32;46.42
33422;BME280;19763;55.798;37.782;2023-04-29T12:33:41;150400.75;;;12.38;44.94
33422;BME280;19763;55.798;37.782;2023-04-29T12:36:15;150369.94;;;12.25;45.33
33422;BME280;19763;55.798;37.782;2023-04-29T12:38:46;150382.78;;;12.31;44.19
33422;BME280;19763;55.798;37.782;2023-04-29T12:41:12;150402.03;;;12.38;43.04
33422;BME280;19763;55.798;37.782;2023-04-29T12:43:41;150426.44;;;12.48;43.80
33422;BME280;19763;55.798;37.782;2023-04-29T12:46:08;150459.84;;;12.62;43.92
33422;BME280;19763;55.798;37.782;2023-04-29T12:48:36;150508.63;;;12.81;44.01
33422;BME280;19763;55.798;37.782;2023-04-29T12:51:11;150521.50;;;12.86;43.04
33422;BME280;19763;55.798;37.782;2023-04-29T12:53:37;150545.91;;;12.96;42.25
33422;BME280;19763;55.798;37.782;2023-04-29T12:56:04;150580.63;;;13.10;42.12
33422;BME280;19763;55.798;37.782;2023-04-29T12:58:31;150596.03;;;13.16;42.59
33422;BME280;19763;55.798;37.782;2023-04-29T13:00:58;150612.75;;;13.23;42.63
33422;BME280;19763;55.798;37.782;2023-04-29T13:03:24;150608.88;;;13.21;42.00
33422;BME280;19763;55.798;37.782;2023-04-29T13:05:50;150629.41;;;13.29;42.11
33422;BME280;19763;55.798;37.782;2023-04-29T13:08:18;150619.19;;;13.25;42.21
33422;BME280;19763;55.798;37.782;2023-04-29T13:10:43;150641.00;;;13.34;41.98
33422;BME280;19763;55.798;37.782;2023-04-29T13:13:09;150660.31;;;13.42;42.57
33422;BME280;19763;55.798;37.782;2023-04-29T13:15:35;150674.47;;;13.48;41.69
33422;BME280;19763;55.798;37.782;2023-04-29T13:18:02;150655.19;;;13.40;42.22